Bookmark and Share
Track history (hours):
 

Jrs Mira

Last reported at 2014-Apr-16 04:08 UTC. Time now 2014-Apr-17 01:06 UTC.
Position N 38°12' W 009°42'.

Length 107 m; draft 8.4 m.

Type: Cargo ship. MMSI: 305780000.

NotesDate/timePositionNaut miles runAvg speedWind from/ knotsBaromVisibWave heightAir tempDewpointWater temp
2014-Apr-16 04:08N 38°12' W 009°42'610.9
2014-Apr-16 03:33N 38°06' W 009°40'1110.7
2014-Apr-16 02:33N 37°55' W 009°37'1110.7
2014-Apr-16 01:33N 37°45' W 009°34'1110.5
2014-Apr-16 00:32N 37°34' W 009°30'62 9.6
2014-Apr-15 18:03N 36°40' W 008°52'168 9.6
2014-Apr-15 00:33N 35°59' W 005°31'9 9.3
2014-Apr-14 23:34N 36°01' W 005°20'1110.5
2014-Apr-14 22:30N 36°04' W 005°06'  
2014-Apr-12 18:04N 37°15' E 006°14'611.3
2014-Apr-12 17:32N 37°15' E 006°22'5210.2
2014-Apr-12 12:26N 37°08' E 007°27'1112.1
2014-Apr-12 11:32N 37°03' E 007°39'10 9.7
2014-Apr-12 10:33N 36°57' E 007°49'4 2.0
2014-Apr-12 08:28N 36°54' E 007°46'0 0.0
2014-Apr-12 07:31N 36°54' E 007°46'0 0.0
2014-Apr-12 04:04N 36°54' E 007°46'0 0.0
2014-Apr-12 02:28N 36°54' E 007°46'0 0.0
2014-Apr-12 01:31N 36°54' E 007°46'0 0.0
2014-Apr-12 00:31N 36°54' E 007°46'0 0.0
2014-Apr-11 23:31N 36°54' E 007°46'0 0.0
2014-Apr-11 22:25N 36°54' E 007°46'0 0.0
2014-Apr-11 21:31N 36°54' E 007°46'0 0.0
2014-Apr-11 20:31N 36°54' E 007°46'0 0.0
2014-Apr-11 19:31N 36°54' E 007°46'0 0.0
2014-Apr-11 18:31N 36°54' E 007°46'0 0.0
2014-Apr-11 17:25N 36°54' E 007°46'0 0.0
2014-Apr-11 16:31N 36°54' E 007°46'0 0.0
2014-Apr-11 15:25N 36°54' E 007°46'0 0.0
2014-Apr-11 14:31N 36°54' E 007°46'0 0.0
2014-Apr-11 13:31N 36°54' E 007°46'0 0.0
2014-Apr-11 12:31N 36°54' E 007°46'0 0.0
2014-Apr-11 11:31N 36°54' E 007°46'0 0.0
2014-Apr-11 10:31N 36°54' E 007°46'26 0.8
2014-Apr-10 01:32N 37°17' E 007°60'2 1.6
2014-Apr-10 00:30N 37°18' E 007°58'2 1.6
2014-Apr-09 23:30N 37°19' E 007°56'  

Dump ship's entire track history

sailing weather and tide predictions

Jrs Mira — V2FS4 — position and weather